createdAt,value
2023-04-20T00:01:14.658Z,6.61
2023-04-20T00:03:52.174Z,6.57
2023-04-20T00:06:33.223Z,6.53
2023-04-20T00:09:09.692Z,6.48
2023-04-20T00:11:48.364Z,6.42
2023-04-20T00:14:24.936Z,6.36
2023-04-20T00:17:01.278Z,6.28
2023-04-20T00:19:37.651Z,6.24
2023-04-20T00:22:17.712Z,6.20
2023-04-20T00:24:54.015Z,6.17
2023-04-20T00:27:36.302Z,6.14
2023-04-20T00:30:20.744Z,6.07
2023-04-20T00:32:57.369Z,6.04
2023-04-20T00:35:34.465Z,5.98
2023-04-20T00:38:10.817Z,5.95
2023-04-20T00:40:53.230Z,5.93
2023-04-20T00:43:29.770Z,5.89
2023-04-20T00:46:06.276Z,5.86
2023-04-20T00:48:49.117Z,5.84
2023-04-20T00:51:26.500Z,5.82
2023-04-20T00:54:03.268Z,5.80
2023-04-20T00:56:40.928Z,5.79
2023-04-20T00:59:18.110Z,5.77
2023-04-20T01:01:55.752Z,5.73
2023-04-20T01:04:32.331Z,5.72
2023-04-20T01:07:09.157Z,5.72
2023-04-20T01:09:45.469Z,5.76
2023-04-20T01:12:21.630Z,5.78
2023-04-20T01:14:58.030Z,5.82
2023-04-20T01:17:35.007Z,5.82
2023-04-20T01:20:15.335Z,5.89
2023-04-20T01:22:56.762Z,5.97
2023-04-20T01:25:33.894Z,6.03
2023-04-20T01:28:11.313Z,6.09
2023-04-20T01:30:48.218Z,6.14
2023-04-20T01:33:24.607Z,6.19
2023-04-20T01:36:02.142Z,6.23
2023-04-20T01:38:39.588Z,6.28
2023-04-20T01:41:16.537Z,6.32
2023-04-20T01:43:52.899Z,6.36
2023-04-20T01:46:29.468Z,6.41
2023-04-20T01:49:06.084Z,6.44
2023-04-20T01:51:42.560Z,6.49
2023-04-20T01:54:18.865Z,6.53
2023-04-20T01:56:55.351Z,6.57
2023-04-20T01:59:33.574Z,6.62
2023-04-20T02:02:11.414Z,6.68
2023-04-20T02:04:53.401Z,6.73
2023-04-20T02:07:30.124Z,6.75
2023-04-20T02:10:07.202Z,6.77
2023-04-20T02:12:43.418Z,6.80
2023-04-20T02:15:20.053Z,6.85
2023-04-20T02:17:57.604Z,6.86
2023-04-20T02:20:34.300Z,6.89
2023-04-20T02:23:11.170Z,6.93
2023-04-20T02:25:47.537Z,6.97
2023-04-20T02:28:23.907Z,6.98
2023-04-20T02:31:00.184Z,7.01
2023-04-20T02:33:37.442Z,7.04
2023-04-20T02:36:15.043Z,7.05
2023-04-20T02:38:51.287Z,7.09
2023-04-20T02:41:30.440Z,7.11
2023-04-20T02:44:07.068Z,7.14
2023-04-20T02:46:45.094Z,7.16
2023-04-20T02:49:21.698Z,7.15
2023-04-20T02:52:03.947Z,7.16
2023-04-20T02:54:40.245Z,7.20
2023-04-20T02:57:20.109Z,7.22
2023-04-20T02:59:56.726Z,7.24
2023-04-20T03:02:47.033Z,7.26
2023-04-20T03:05:24.333Z,7.29
2023-04-20T03:08:01.224Z,7.30
2023-04-20T03:10:37.692Z,7.33
2023-04-20T03:13:22.962Z,7.32
2023-04-20T03:16:06.885Z,7.34
2023-04-20T03:18:51.765Z,7.32
2023-04-20T03:21:28.735Z,7.34
2023-04-20T03:24:06.269Z,7.34
2023-04-20T03:26:42.800Z,7.34
2023-04-20T03:29:25.407Z,7.34
2023-04-20T03:32:02.333Z,7.34
2023-04-20T03:34:38.752Z,7.33
2023-04-20T03:37:15.678Z,7.32
2023-04-20T03:39:52.208Z,7.32
2023-04-20T03:42:30.311Z,7.31
2023-04-20T03:45:08.603Z,7.32
2023-04-20T03:47:49.365Z,7.32
2023-04-20T03:50:26.538Z,7.32
2023-04-20T03:53:03.138Z,7.32
2023-04-20T03:55:40.960Z,7.34
2023-04-20T03:58:21.158Z,7.37
2023-04-20T04:01:21.407Z,7.39
2023-04-20T04:03:58.615Z,7.38
2023-04-20T04:06:35.057Z,7.40
2023-04-20T04:09:11.629Z,7.42
2023-04-20T04:11:47.992Z,7.44
2023-04-20T04:14:24.452Z,7.47
2023-04-20T04:17:02.855Z,7.49
2023-04-20T04:19:39.958Z,7.51
2023-04-20T04:22:16.340Z,7.56
2023-04-20T04:25:04.122Z,7.63
2023-04-20T04:27:42.280Z,7.68
2023-04-20T04:30:20.012Z,7.75
2023-04-20T04:32:57.729Z,7.81
2023-04-20T04:35:34.725Z,7.88
2023-04-20T04:38:12.864Z,7.94
2023-04-20T04:40:52.587Z,8.04
2023-04-20T04:43:31.004Z,8.14
2023-04-20T04:46:16.723Z,8.25
2023-04-20T04:49:13.610Z,8.35
2023-04-20T04:51:52.760Z,8.44
2023-04-20T04:54:36.646Z,8.56
2023-04-20T04:57:13.048Z,8.65
2023-04-20T04:59:49.409Z,8.75
2023-04-20T05:02:25.853Z,8.86
2023-04-20T05:05:02.300Z,8.97
2023-04-20T05:07:40.284Z,9.09
2023-04-20T05:10:16.905Z,9.23
2023-04-20T05:13:16.515Z,9.37
2023-04-20T05:15:57.159Z,9.49
2023-04-20T05:18:33.652Z,9.59
2023-04-20T05:21:11.279Z,9.71
2023-04-20T05:23:47.604Z,9.84
2023-04-20T05:26:24.475Z,9.94
2023-04-20T05:29:00.628Z,10.01
2023-04-20T05:31:36.882Z,10.08
2023-04-20T05:34:13.929Z,10.14
2023-04-20T05:36:51.190Z,10.23
2023-04-20T05:39:30.672Z,10.31
2023-04-20T05:42:07.128Z,10.35
2023-04-20T05:44:44.170Z,10.40
2023-04-20T05:47:20.562Z,10.43
2023-04-20T05:49:57.004Z,10.43
2023-04-20T05:52:33.601Z,10.44
2023-04-20T05:55:12.196Z,10.41
2023-04-20T05:57:48.683Z,10.45
2023-04-20T06:00:26.457Z,10.45
2023-04-20T06:03:03.114Z,10.44
2023-04-20T06:05:39.796Z,10.50
2023-04-20T06:08:19.637Z,10.54
2023-04-20T06:10:59.507Z,10.61
2023-04-20T06:13:35.986Z,10.70
2023-04-20T06:16:13.369Z,10.84
2023-04-20T06:18:52.375Z,11.01
2023-04-20T06:21:28.699Z,11.20
2023-04-20T06:24:05.659Z,11.45
2023-04-20T06:26:41.895Z,11.68
2023-04-20T06:29:18.883Z,11.79
2023-04-20T06:31:55.372Z,11.91
2023-04-20T06:34:41.318Z,12.09
2023-04-20T06:37:21.698Z,12.19
2023-04-20T06:40:00.572Z,12.26
2023-04-20T06:42:37.525Z,12.53
2023-04-20T06:45:16.200Z,13.29
2023-04-20T06:47:52.494Z,13.90
2023-04-20T06:50:29.449Z,14.37
2023-04-20T06:53:06.779Z,14.64
2023-04-20T06:55:43.333Z,14.93
2023-04-20T06:58:19.764Z,15.09
2023-04-20T07:00:56.080Z,15.03
2023-04-20T07:03:32.881Z,15.02
2023-04-20T07:06:11.360Z,14.96
2023-04-20T07:08:48.236Z,14.89
2023-04-20T07:11:25.029Z,14.82
2023-04-20T07:14:01.542Z,14.78
2023-04-20T07:16:37.918Z,14.77
2023-04-20T07:19:14.378Z,14.76
2023-04-20T07:21:50.665Z,14.95
2023-04-20T07:24:27.823Z,15.20
2023-04-20T07:27:08.941Z,15.49
2023-04-20T07:29:45.413Z,15.77
2023-04-20T07:32:21.922Z,16.01
2023-04-20T07:34:58.514Z,16.36
2023-04-20T07:37:36.631Z,16.79
2023-04-20T07:40:17.045Z,16.89
2023-04-20T07:43:00.015Z,16.88
2023-04-20T07:45:36.921Z,16.85
2023-04-20T07:48:15.216Z,16.75
2023-04-20T07:50:51.873Z,16.58
2023-04-20T07:53:28.428Z,16.37
2023-04-20T07:56:05.339Z,16.25
2023-04-20T07:58:41.565Z,16.22
2023-04-20T08:01:18.089Z,16.25
2023-04-20T08:03:58.980Z,16.18
2023-04-20T08:06:35.860Z,16.20
2023-04-20T08:09:13.407Z,16.30
2023-04-20T08:11:49.988Z,16.30
2023-04-20T08:14:26.421Z,16.19
2023-04-20T08:17:03.793Z,16.14
2023-04-20T08:19:43.787Z,16.14
2023-04-20T08:22:22.153Z,16.07
2023-04-20T08:24:58.681Z,15.98
2023-04-20T08:27:35.021Z,16.11
2023-04-20T08:30:14.513Z,16.22
2023-04-20T08:32:51.029Z,16.20
2023-04-20T08:35:27.696Z,16.27
2023-04-20T08:38:03.995Z,16.32
2023-04-20T08:40:41.324Z,16.35
2023-04-20T08:43:17.677Z,16.42
2023-04-20T08:45:59.120Z,16.44
2023-04-20T08:48:39.445Z,16.43
2023-04-20T08:51:18.288Z,16.37
2023-04-20T08:53:56.185Z,16.30
2023-04-20T08:56:44.011Z,16.23
2023-04-20T08:59:21.493Z,16.03
2023-04-20T09:01:57.914Z,15.97
2023-04-20T09:04:34.697Z,15.97
2023-04-20T09:07:24.166Z,15.97
2023-04-20T09:10:04.818Z,15.93
2023-04-20T09:12:48.389Z,15.83
2023-04-20T09:15:35.965Z,15.63
2023-04-20T09:18:21.573Z,15.57
2023-04-20T09:21:10.719Z,15.51
2023-04-20T09:23:56.927Z,15.48
2023-04-20T09:26:37.452Z,15.46
2023-04-20T09:29:25.756Z,15.50
2023-04-20T09:32:02.231Z,15.52
2023-04-20T09:34:48.739Z,15.58
2023-04-20T09:37:26.748Z,15.53
2023-04-20T09:40:06.317Z,15.52
2023-04-20T09:42:44.993Z,15.59
2023-04-20T09:45:22.235Z,15.64
2023-04-20T09:48:00.798Z,15.65
2023-04-20T09:50:48.487Z,15.62
2023-04-20T09:53:26.485Z,15.56
2023-04-20T09:56:04.383Z,15.57
2023-04-20T09:58:41.474Z,15.61
2023-04-20T10:01:25.665Z,15.53
2023-04-20T10:04:11.945Z,15.38
2023-04-20T10:07:06.225Z,15.24
2023-04-20T10:09:42.707Z,15.16
2023-04-20T10:12:20.441Z,15.00
2023-04-20T10:15:02.480Z,14.87
2023-04-20T10:17:39.976Z,14.84
2023-04-20T10:20:28.527Z,14.72
2023-04-20T10:23:16.356Z,14.67
2023-04-20T10:26:04.047Z,14.65
2023-04-20T10:28:49.907Z,14.59
2023-04-20T10:31:36.411Z,14.49
2023-04-20T10:34:13.121Z,14.51
2023-04-20T10:36:49.549Z,14.45
2023-04-20T10:39:27.733Z,14.34
2023-04-20T10:42:04.075Z,14.32
2023-04-20T10:44:50.623Z,14.35
2023-04-20T10:47:37.734Z,14.33
2023-04-20T10:50:19.656Z,14.36
2023-04-20T10:52:57.400Z,14.42
2023-04-20T10:55:34.425Z,14.51
2023-04-20T10:58:10.982Z,14.67
2023-04-20T11:00:57.877Z,14.85
2023-04-20T11:03:36.378Z,15.01
2023-04-20T11:06:13.935Z,15.13
2023-04-20T11:08:50.354Z,15.15
2023-04-20T11:11:40.467Z,15.19
2023-04-20T11:14:26.995Z,15.27
2023-04-20T11:17:03.725Z,15.25
2023-04-20T11:19:41.252Z,15.35
2023-04-20T11:22:25.517Z,15.34
2023-04-20T11:25:15.044Z,15.47
2023-04-20T11:27:51.377Z,15.56
2023-04-20T11:30:28.077Z,15.77
2023-04-20T11:33:04.573Z,16.01
2023-04-20T11:35:44.858Z,16.20
2023-04-20T11:38:32.204Z,16.44
2023-04-20T11:41:09.999Z,16.64
2023-04-20T11:43:46.777Z,16.80
2023-04-20T11:46:44.178Z,16.84
2023-04-20T11:49:21.608Z,16.92
2023-04-20T11:51:58.363Z,16.93
2023-04-20T11:54:35.226Z,17.08
2023-04-20T11:57:11.679Z,17.13
2023-04-20T11:59:49.355Z,17.17
2023-04-20T12:02:26.194Z,17.22
2023-04-20T12:05:03.828Z,17.27
2023-04-20T12:07:40.707Z,17.32
2023-04-20T12:10:17.176Z,17.33
2023-04-20T12:12:53.878Z,17.30
2023-04-20T12:15:30.358Z,17.25
2023-04-20T12:18:07.064Z,17.16
2023-04-20T12:20:43.377Z,17.08
2023-04-20T12:23:20.412Z,17.02
2023-04-20T12:25:56.665Z,16.99
2023-04-20T12:28:33.406Z,16.98
2023-04-20T12:31:10.043Z,17.03
2023-04-20T12:33:46.484Z,16.96
2023-04-20T12:36:22.846Z,16.90
2023-04-20T12:38:59.588Z,16.89
2023-04-20T12:41:43.819Z,16.90
2023-04-20T12:44:20.533Z,16.90
2023-04-20T12:46:57.407Z,16.90
2023-04-20T12:49:34.382Z,16.87
2023-04-20T12:52:11.385Z,16.87
2023-04-20T12:54:47.605Z,16.89
2023-04-20T12:57:24.110Z,16.86
2023-04-20T13:00:02.697Z,16.87
2023-04-20T13:02:39.388Z,16.71
2023-04-20T13:05:16.655Z,16.58
2023-04-20T13:08:04.720Z,16.44
2023-04-20T13:10:43.609Z,16.32
2023-04-20T13:13:19.856Z,16.28
2023-04-20T13:15:57.760Z,16.27
2023-04-20T13:18:34.989Z,16.28
2023-04-20T13:21:15.879Z,16.35
2023-04-20T13:23:58.167Z,16.49
2023-04-20T13:26:34.691Z,16.62
2023-04-20T13:29:11.417Z,16.66
2023-04-20T13:31:48.630Z,16.67
2023-04-20T13:34:25.046Z,16.67
2023-04-20T13:37:01.428Z,16.70
2023-04-20T13:39:37.979Z,16.70
2023-04-20T13:42:14.452Z,16.68
2023-04-20T13:44:54.929Z,16.67
2023-04-20T13:47:31.501Z,16.70
2023-04-20T13:50:09.740Z,16.67
2023-04-20T13:52:46.291Z,16.68
2023-04-20T13:55:26.929Z,16.68
2023-04-20T13:58:03.550Z,16.67
2023-04-20T14:00:39.891Z,16.66
2023-04-20T14:03:21.368Z,16.65
2023-04-20T14:05:58.114Z,16.64
2023-04-20T14:08:34.706Z,16.65
2023-04-20T14:11:11.279Z,16.65
2023-04-20T14:13:50.185Z,16.64
2023-04-20T14:16:27.847Z,16.64
2023-04-20T14:19:04.679Z,16.62
2023-04-20T14:21:44.468Z,16.64
2023-04-20T14:24:20.827Z,16.62
2023-04-20T14:26:58.496Z,16.59
2023-04-20T14:29:36.164Z,16.51
2023-04-20T14:32:16.020Z,16.45
2023-04-20T14:34:52.343Z,16.42
2023-04-20T14:37:28.758Z,16.38
2023-04-20T14:40:07.390Z,16.32
2023-04-20T14:42:43.678Z,16.28
2023-04-20T14:45:20.986Z,16.28
2023-04-20T14:48:00.204Z,16.29
2023-04-20T14:50:41.561Z,16.25
2023-04-20T14:53:19.073Z,16.25
2023-04-20T14:55:56.362Z,16.31
2023-04-20T14:58:36.271Z,16.41
2023-04-20T15:01:12.966Z,16.45
2023-04-20T15:03:53.385Z,16.46
2023-04-20T15:06:30.927Z,16.45
2023-04-20T15:09:07.558Z,16.42
2023-04-20T15:11:57.026Z,16.40
2023-04-20T15:14:33.800Z,16.41
2023-04-20T15:17:11.815Z,16.39
2023-04-20T15:19:48.174Z,16.39
2023-04-20T15:22:24.861Z,16.37
2023-04-20T15:25:01.125Z,16.39
2023-04-20T15:27:38.117Z,16.38
2023-04-20T15:30:16.430Z,16.39
2023-04-20T15:32:53.468Z,16.36
2023-04-20T15:35:30.153Z,16.30
2023-04-20T15:38:07.030Z,16.23
2023-04-20T15:40:45.055Z,16.13
2023-04-20T15:43:21.334Z,16.05
2023-04-20T15:45:57.776Z,15.96
2023-04-20T15:48:34.421Z,15.88
2023-04-20T15:51:11.052Z,15.82
2023-04-20T15:53:50.741Z,15.79
2023-04-20T15:56:27.426Z,15.76
2023-04-20T15:59:04.621Z,15.74
2023-04-20T16:01:41.412Z,15.70
2023-04-20T16:04:18.326Z,15.67
2023-04-20T16:07:00.969Z,15.66
2023-04-20T16:09:40.420Z,15.62
2023-04-20T16:12:22.407Z,15.58
2023-04-20T16:14:58.772Z,15.55
2023-04-20T16:17:43.326Z,15.53
2023-04-20T16:20:25.265Z,15.53
2023-04-20T16:23:03.683Z,15.54
2023-04-20T16:25:40.862Z,15.54
2023-04-20T16:28:21.273Z,15.53
2023-04-20T16:30:57.960Z,15.52
2023-04-20T16:33:35.738Z,15.49
2023-04-20T16:36:13.773Z,15.47
2023-04-20T16:38:50.319Z,15.45
2023-04-20T16:41:27.272Z,15.44
2023-04-20T16:44:03.678Z,15.40
2023-04-20T16:46:42.045Z,15.35
2023-04-20T16:49:19.600Z,15.30
2023-04-20T16:51:58.494Z,15.26
2023-04-20T16:55:00.573Z,15.20
2023-04-20T16:57:36.876Z,15.15
2023-04-20T17:00:17.526Z,15.10
2023-04-20T17:02:54.998Z,15.07
2023-04-20T17:05:31.768Z,15.03
2023-04-20T17:08:08.774Z,14.99
2023-04-20T17:10:45.196Z,14.93
2023-04-20T17:13:23.596Z,14.87
2023-04-20T17:16:00.143Z,14.79
2023-04-20T17:18:39.771Z,14.73
2023-04-20T17:21:24.180Z,14.65
2023-04-20T17:24:00.754Z,14.58
2023-04-20T17:26:37.459Z,14.49
2023-04-20T17:29:13.900Z,14.40
2023-04-20T17:31:50.558Z,14.30
2023-04-20T17:34:27.489Z,14.21
2023-04-20T17:37:03.921Z,14.11
2023-04-20T17:39:40.230Z,14.01
2023-04-20T17:42:16.857Z,13.92
2023-04-20T17:44:54.141Z,13.81
2023-04-20T17:47:32.681Z,13.72
2023-04-20T17:50:13.470Z,13.63
2023-04-20T17:52:49.985Z,13.52
2023-04-20T17:55:26.860Z,13.41
2023-04-20T17:58:04.887Z,13.33
2023-04-20T18:00:41.485Z,13.23
2023-04-20T18:03:20.159Z,13.15
2023-04-20T18:05:56.895Z,13.08
2023-04-20T18:08:34.516Z,13.00
2023-04-20T18:11:11.613Z,12.94
2023-04-20T18:13:47.973Z,12.88
2023-04-20T18:16:24.397Z,12.83
2023-04-20T18:19:29.368Z,12.78
2023-04-20T18:22:06.238Z,12.73
2023-04-20T18:24:42.686Z,12.70
2023-04-20T18:27:19.076Z,12.66
2023-04-20T18:29:59.919Z,12.65
2023-04-20T18:32:38.733Z,12.63
2023-04-20T18:35:16.743Z,12.63
2023-04-20T18:37:53.694Z,12.62
2023-04-20T18:40:30.021Z,12.62
2023-04-20T18:43:16.508Z,12.60
2023-04-20T18:45:52.778Z,12.60
2023-04-20T18:48:29.244Z,12.58
2023-04-20T18:51:05.774Z,12.56
2023-04-20T18:53:42.281Z,12.56
2023-04-20T18:56:21.135Z,12.55
2023-04-20T18:58:59.626Z,12.52
2023-04-20T19:01:40.664Z,12.48
2023-04-20T19:04:17.509Z,12.45
2023-04-20T19:06:54.252Z,12.41
2023-04-20T19:09:31.059Z,12.38
2023-04-20T19:12:12.595Z,12.34
2023-04-20T19:14:49.642Z,12.32
2023-04-20T19:17:33.563Z,12.28
2023-04-20T19:20:13.133Z,12.26
2023-04-20T19:22:49.639Z,12.23
2023-04-20T19:25:29.730Z,12.20
2023-04-20T19:28:08.255Z,12.16
2023-04-20T19:30:44.815Z,12.14
2023-04-20T19:33:21.435Z,12.09
2023-04-20T19:36:14.901Z,12.05
2023-04-20T19:38:51.840Z,12.03
2023-04-20T19:41:29.045Z,12.00
2023-04-20T19:44:06.622Z,11.97
2023-04-20T19:46:44.967Z,11.94
2023-04-20T19:49:21.654Z,11.92
2023-04-20T19:52:00.975Z,11.88
2023-04-20T19:54:37.341Z,11.86
2023-04-20T19:57:14.118Z,11.82
2023-04-20T19:59:51.170Z,11.79
2023-04-20T20:02:28.432Z,11.73
2023-04-20T20:05:06.801Z,11.69
2023-04-20T20:07:49.014Z,11.66
2023-04-20T20:10:25.457Z,11.62
2023-04-20T20:13:02.126Z,11.59
2023-04-20T20:15:38.633Z,11.55
2023-04-20T20:18:26.012Z,11.53
2023-04-20T20:21:02.392Z,11.49
2023-04-20T20:23:38.754Z,11.45
2023-04-20T20:26:15.211Z,11.41
2023-04-20T20:28:51.706Z,11.36
2023-04-20T20:31:28.790Z,11.30
2023-04-20T20:34:06.748Z,11.24
2023-04-20T20:36:46.014Z,11.18
2023-04-20T20:39:23.278Z,11.14
2023-04-20T20:41:59.828Z,11.08
2023-04-20T20:44:39.200Z,11.02
2023-04-20T20:47:15.677Z,10.98
2023-04-20T20:49:52.048Z,10.93
2023-04-20T20:52:28.413Z,10.87
2023-04-20T20:55:05.294Z,10.82
2023-04-20T20:57:41.629Z,10.77
2023-04-20T21:00:20.420Z,10.70
2023-04-20T21:02:57.850Z,10.64
2023-04-20T21:05:39.956Z,10.58
2023-04-20T21:08:17.400Z,10.52
2023-04-20T21:10:53.914Z,10.44
2023-04-20T21:13:30.379Z,10.34
2023-04-20T21:16:07.313Z,10.25
2023-04-20T21:18:57.462Z,10.16
2023-04-20T21:21:34.628Z,10.10
2023-04-20T21:24:12.694Z,10.02
2023-04-20T21:26:49.104Z,9.97
2023-04-20T21:29:26.879Z,9.89
2023-04-20T21:32:03.258Z,9.84
2023-04-20T21:34:39.828Z,9.80
2023-04-20T21:37:16.300Z,9.73
2023-04-20T21:39:53.529Z,9.68
2023-04-20T21:42:29.856Z,9.64
2023-04-20T21:45:10.558Z,9.58
2023-04-20T21:47:48.377Z,9.54
2023-04-20T21:50:27.196Z,9.48
2023-04-20T21:53:03.729Z,9.42
2023-04-20T21:55:40.177Z,9.36
2023-04-20T21:58:18.484Z,9.26
2023-04-20T22:00:54.984Z,9.19
2023-04-20T22:03:32.417Z,9.15
2023-04-20T22:06:09.966Z,9.11
2023-04-20T22:08:46.626Z,9.07
2023-04-20T22:11:22.876Z,9.05
2023-04-20T22:14:02.369Z,9.02
2023-04-20T22:16:39.292Z,8.98
2023-04-20T22:19:16.346Z,8.98
2023-04-20T22:21:54.664Z,8.97
2023-04-20T22:24:30.952Z,8.96
2023-04-20T22:27:09.431Z,8.95
2023-04-20T22:29:48.325Z,8.95
2023-04-20T22:32:28.550Z,8.94
2023-04-20T22:35:10.244Z,8.93
2023-04-20T22:37:46.566Z,8.92
2023-04-20T22:40:23.066Z,8.93
2023-04-20T22:43:09.780Z,8.93
2023-04-20T22:45:46.781Z,8.95
2023-04-20T22:48:23.213Z,8.96
2023-04-20T22:51:04.094Z,8.95
2023-04-20T22:53:40.335Z,8.93
2023-04-20T22:56:17.430Z,8.96
2023-04-20T22:58:59.435Z,8.99
2023-04-20T23:01:35.786Z,9.04
2023-04-20T23:04:12.485Z,9.07
2023-04-20T23:06:48.735Z,9.11
2023-04-20T23:09:25.115Z,9.11
2023-04-20T23:12:03.811Z,9.11
2023-04-20T23:14:43.751Z,9.10
2023-04-20T23:17:20.222Z,9.10
2023-04-20T23:19:56.716Z,9.11
2023-04-20T23:22:33.078Z,9.11
2023-04-20T23:25:11.429Z,9.11
2023-04-20T23:27:56.432Z,9.12
2023-04-20T23:30:32.913Z,9.12
2023-04-20T23:33:24.418Z,9.13
2023-04-20T23:36:05.743Z,9.13
2023-04-20T23:38:42.168Z,9.14
2023-04-20T23:41:19.905Z,9.12
2023-04-20T23:43:57.558Z,9.12
2023-04-20T23:46:34.605Z,9.09
2023-04-20T23:49:11.527Z,9.05
2023-04-20T23:52:00.885Z,9.04
2023-04-20T23:54:38.432Z,9.04
2023-04-20T23:57:14.835Z,9.01
2023-04-20T23:59:51.408Z,9.00
